sensor_id;sensor_type;location;lat;lon;timestamp;temperature;humidity
15749;DHT22;7976;52.526;13.326;2022-10-24T00:01:32;14.10;99.90
15749;DHT22;7976;52.526;13.326;2022-10-24T00:03:59;14.10;99.90
15749;DHT22;7976;52.526;13.326;2022-10-24T00:06:26;14.10;99.90
15749;DHT22;7976;52.526;13.326;2022-10-24T00:08:55;14.10;99.90
15749;DHT22;7976;52.526;13.326;2022-10-24T00:11:25;14.10;99.90
15749;DHT22;7976;52.526;13.326;2022-10-24T00:16:35;14.10;99.90
15749;DHT22;7976;52.526;13.326;2022-10-24T00:19:03;14.10;99.90
15749;DHT22;7976;52.526;13.326;2022-10-24T00:21:30;14.10;99.90
15749;DHT22;7976;52.526;13.326;2022-10-24T00:23:59;14.10;99.90
15749;DHT22;7976;52.526;13.326;2022-10-24T00:26:26;14.10;99.90
15749;DHT22;7976;52.526;13.326;2022-10-24T00:28:56;14.00;99.90
15749;DHT22;7976;52.526;13.326;2022-10-24T00:31:23;14.00;99.90
15749;DHT22;7976;52.526;13.326;2022-10-24T00:33:50;13.90;99.90
15749;DHT22;7976;52.526;13.326;2022-10-24T00:36:20;13.90;99.90
15749;DHT22;7976;52.526;13.326;2022-10-24T00:38:50;13.90;99.90
15749;DHT22;7976;52.526;13.326;2022-10-24T00:41:21;13.90;99.90
15749;DHT22;7976;52.526;13.326;2022-10-24T00:44:10;14.00;99.90
15749;DHT22;7976;52.526;13.326;2022-10-24T00:46:39;14.00;99.90
15749;DHT22;7976;52.526;13.326;2022-10-24T00:49:11;14.00;99.90
15749;DHT22;7976;52.526;13.326;2022-10-24T00:51:42;14.00;99.90
15749;DHT22;7976;52.526;13.326;2022-10-24T00:54:13;13.90;99.90
15749;DHT22;7976;52.526;13.326;2022-10-24T00:56:50;13.90;99.90
15749;DHT22;7976;52.526;13.326;2022-10-24T00:59:25;13.90;99.90
15749;DHT22;7976;52.526;13.326;2022-10-24T01:01:53;13.90;99.90
15749;DHT22;7976;52.526;13.326;2022-10-24T01:04:20;13.90;99.90
15749;DHT22;7976;52.526;13.326;2022-10-24T01:06:57;13.90;99.90
15749;DHT22;7976;52.526;13.326;2022-10-24T01:09:44;13.90;99.90
15749;DHT22;7976;52.526;13.326;2022-10-24T01:12:38;13.90;99.90
15749;DHT22;7976;52.526;13.326;2022-10-24T01:15:17;13.90;99.90
15749;DHT22;7976;52.526;13.326;2022-10-24T01:17:55;13.80;99.90
15749;DHT22;7976;52.526;13.326;2022-10-24T01:20:47;13.90;99.90
15749;DHT22;7976;52.526;13.326;2022-10-24T01:27:05;13.90;99.90
15749;DHT22;7976;52.526;13.326;2022-10-24T01:29:55;13.90;99.90
15749;DHT22;7976;52.526;13.326;2022-10-24T01:32:47;13.90;99.90
15749;DHT22;7976;52.526;13.326;2022-10-24T01:35:29;14.00;99.90
15749;DHT22;7976;52.526;13.326;2022-10-24T01:38:10;14.00;99.90
15749;DHT22;7976;52.526;13.326;2022-10-24T01:40:48;14.00;99.90
15749;DHT22;7976;52.526;13.326;2022-10-24T01:43:22;14.00;99.90
15749;DHT22;7976;52.526;13.326;2022-10-24T01:45:57;14.00;99.90
15749;DHT22;7976;52.526;13.326;2022-10-24T01:48:29;14.00;99.90
15749;DHT22;7976;52.526;13.326;2022-10-24T01:51:01;14.00;99.90
15749;DHT22;7976;52.526;13.326;2022-10-24T01:53:30;14.00;99.90
15749;DHT22;7976;52.526;13.326;2022-10-24T01:55:57;14.00;99.90
15749;DHT22;7976;52.526;13.326;2022-10-24T01:58:25;13.90;99.90
15749;DHT22;7976;52.526;13.326;2022-10-24T02:00:56;14.00;99.90
15749;DHT22;7976;52.526;13.326;2022-10-24T02:03:30;14.00;99.90
15749;DHT22;7976;52.526;13.326;2022-10-24T02:06:03;14.00;99.90
15749;DHT22;7976;52.526;13.326;2022-10-24T02:08:39;14.00;99.90
15749;DHT22;7976;52.526;13.326;2022-10-24T02:11:10;14.00;99.90
15749;DHT22;7976;52.526;13.326;2022-10-24T02:13:42;14.00;99.90
15749;DHT22;7976;52.526;13.326;2022-10-24T02:16:14;13.90;99.90
15749;DHT22;7976;52.526;13.326;2022-10-24T02:18:45;14.00;99.90
15749;DHT22;7976;52.526;13.326;2022-10-24T02:21:20;13.90;99.90
15749;DHT22;7976;52.526;13.326;2022-10-24T02:23:57;13.90;99.90
15749;DHT22;7976;52.526;13.326;2022-10-24T02:26:31;13.90;99.90
15749;DHT22;7976;52.526;13.326;2022-10-24T02:29:06;13.90;99.90
15749;DHT22;7976;52.526;13.326;2022-10-24T02:31:42;13.90;99.90
15749;DHT22;7976;52.526;13.326;2022-10-24T02:34:14;13.90;99.90
15749;DHT22;7976;52.526;13.326;2022-10-24T02:36:45;13.90;99.90
15749;DHT22;7976;52.526;13.326;2022-10-24T02:39:15;13.90;99.90
15749;DHT22;7976;52.526;13.326;2022-10-24T02:41:44;13.90;99.90
15749;DHT22;7976;52.526;13.326;2022-10-24T02:44:14;13.80;99.90
15749;DHT22;7976;52.526;13.326;2022-10-24T02:46:45;13.80;99.90
15749;DHT22;7976;52.526;13.326;2022-10-24T02:49:14;13.80;99.90
15749;DHT22;7976;52.526;13.326;2022-10-24T02:51:43;13.80;99.90
15749;DHT22;7976;52.526;13.326;2022-10-24T02:54:12;13.80;99.90
15749;DHT22;7976;52.526;13.326;2022-10-24T02:56:42;13.80;99.90
15749;DHT22;7976;52.526;13.326;2022-10-24T02:59:12;13.80;99.90
15749;DHT22;7976;52.526;13.326;2022-10-24T03:01:39;13.80;99.90
15749;DHT22;7976;52.526;13.326;2022-10-24T03:04:08;13.80;99.90
15749;DHT22;7976;52.526;13.326;2022-10-24T03:06:35;13.80;99.90
15749;DHT22;7976;52.526;13.326;2022-10-24T03:09:02;13.70;99.90
15749;DHT22;7976;52.526;13.326;2022-10-24T03:11:29;13.70;99.90
15749;DHT22;7976;52.526;13.326;2022-10-24T03:13:56;13.70;99.90
15749;DHT22;7976;52.526;13.326;2022-10-24T03:16:23;13.70;99.90
15749;DHT22;7976;52.526;13.326;2022-10-24T03:18:52;13.70;99.90
15749;DHT22;7976;52.526;13.326;2022-10-24T03:21:21;13.70;99.90
15749;DHT22;7976;52.526;13.326;2022-10-24T03:23:49;13.70;99.90
15749;DHT22;7976;52.526;13.326;2022-10-24T03:26:16;13.70;99.90
15749;DHT22;7976;52.526;13.326;2022-10-24T03:28:43;13.70;99.90
15749;DHT22;7976;52.526;13.326;2022-10-24T03:31:10;13.70;99.90
15749;DHT22;7976;52.526;13.326;2022-10-24T03:33:37;13.70;99.90
15749;DHT22;7976;52.526;13.326;2022-10-24T03:36:04;13.60;99.90
15749;DHT22;7976;52.526;13.326;2022-10-24T03:38:33;13.70;99.90
15749;DHT22;7976;52.526;13.326;2022-10-24T03:40:59;13.70;99.90
15749;DHT22;7976;52.526;13.326;2022-10-24T03:43:26;13.60;99.90
15749;DHT22;7976;52.526;13.326;2022-10-24T03:45:53;13.70;99.90
15749;DHT22;7976;52.526;13.326;2022-10-24T03:48:20;13.70;99.90
15749;DHT22;7976;52.526;13.326;2022-10-24T03:50:47;13.70;99.90
15749;DHT22;7976;52.526;13.326;2022-10-24T03:53:13;13.70;99.90
15749;DHT22;7976;52.526;13.326;2022-10-24T03:55:42;13.70;99.90
15749;DHT22;7976;52.526;13.326;2022-10-24T03:58:08;13.60;99.90
15749;DHT22;7976;52.526;13.326;2022-10-24T04:00:35;13.60;99.90
15749;DHT22;7976;52.526;13.326;2022-10-24T04:03:04;13.60;99.90
15749;DHT22;7976;52.526;13.326;2022-10-24T04:05:32;13.60;99.90
15749;DHT22;7976;52.526;13.326;2022-10-24T04:07:59;13.60;99.90
15749;DHT22;7976;52.526;13.326;2022-10-24T04:10:27;13.60;99.90
15749;DHT22;7976;52.526;13.326;2022-10-24T04:12:55;13.60;99.90
15749;DHT22;7976;52.526;13.326;2022-10-24T04:15:22;13.60;99.90
15749;DHT22;7976;52.526;13.326;2022-10-24T04:17:49;13.50;99.90
15749;DHT22;7976;52.526;13.326;2022-10-24T04:20:16;13.50;99.90
15749;DHT22;7976;52.526;13.326;2022-10-24T04:22:45;13.60;99.90
15749;DHT22;7976;52.526;13.326;2022-10-24T04:25:12;13.50;99.90
15749;DHT22;7976;52.526;13.326;2022-10-24T04:27:39;13.60;99.90
15749;DHT22;7976;52.526;13.326;2022-10-24T04:30:09;13.60;99.90
15749;DHT22;7976;52.526;13.326;2022-10-24T04:32:37;13.60;99.90
15749;DHT22;7976;52.526;13.326;2022-10-24T04:35:04;13.60;99.90
15749;DHT22;7976;52.526;13.326;2022-10-24T04:37:32;13.50;99.90
15749;DHT22;7976;52.526;13.326;2022-10-24T04:39:58;13.50;99.90
15749;DHT22;7976;52.526;13.326;2022-10-24T04:42:25;13.50;99.90
15749;DHT22;7976;52.526;13.326;2022-10-24T04:44:52;13.50;99.90
15749;DHT22;7976;52.526;13.326;2022-10-24T04:47:20;13.60;99.90
15749;DHT22;7976;52.526;13.326;2022-10-24T04:49:47;13.60;99.90
15749;DHT22;7976;52.526;13.326;2022-10-24T04:52:14;13.60;99.90
15749;DHT22;7976;52.526;13.326;2022-10-24T04:54:41;13.50;99.90
15749;DHT22;7976;52.526;13.326;2022-10-24T04:57:07;13.60;99.90
15749;DHT22;7976;52.526;13.326;2022-10-24T04:59:34;13.50;99.90
15749;DHT22;7976;52.526;13.326;2022-10-24T05:02:01;13.60;99.90
15749;DHT22;7976;52.526;13.326;2022-10-24T05:04:30;13.60;99.90
15749;DHT22;7976;52.526;13.326;2022-10-24T05:06:57;13.60;99.90
15749;DHT22;7976;52.526;13.326;2022-10-24T05:09:23;13.60;99.90
15749;DHT22;7976;52.526;13.326;2022-10-24T05:11:53;13.60;99.90
15749;DHT22;7976;52.526;13.326;2022-10-24T05:14:21;13.60;99.90
15749;DHT22;7976;52.526;13.326;2022-10-24T05:16:48;13.60;99.90
15749;DHT22;7976;52.526;13.326;2022-10-24T05:19:15;13.60;99.90
15749;DHT22;7976;52.526;13.326;2022-10-24T05:21:46;13.60;99.90
15749;DHT22;7976;52.526;13.326;2022-10-24T05:24:13;13.50;99.90
15749;DHT22;7976;52.526;13.326;2022-10-24T05:26:43;13.60;99.90
15749;DHT22;7976;52.526;13.326;2022-10-24T05:29:11;13.60;99.90
15749;DHT22;7976;52.526;13.326;2022-10-24T05:31:38;13.60;99.90
15749;DHT22;7976;52.526;13.326;2022-10-24T05:34:05;13.60;99.90
15749;DHT22;7976;52.526;13.326;2022-10-24T05:36:32;13.60;99.90
15749;DHT22;7976;52.526;13.326;2022-10-24T05:39:00;13.60;99.90
15749;DHT22;7976;52.526;13.326;2022-10-24T05:41:27;13.60;99.90
15749;DHT22;7976;52.526;13.326;2022-10-24T05:43:54;13.60;99.90
15749;DHT22;7976;52.526;13.326;2022-10-24T05:46:21;13.60;99.90
15749;DHT22;7976;52.526;13.326;2022-10-24T05:48:48;13.60;99.90
15749;DHT22;7976;52.526;13.326;2022-10-24T05:51:15;13.60;99.90
15749;DHT22;7976;52.526;13.326;2022-10-24T05:53:42;13.60;99.90
15749;DHT22;7976;52.526;13.326;2022-10-24T05:56:10;13.60;99.90
15749;DHT22;7976;52.526;13.326;2022-10-24T05:58:37;13.60;99.90
15749;DHT22;7976;52.526;13.326;2022-10-24T06:01:04;13.60;99.90
15749;DHT22;7976;52.526;13.326;2022-10-24T06:03:31;13.60;99.90
15749;DHT22;7976;52.526;13.326;2022-10-24T06:06:02;13.60;99.90
15749;DHT22;7976;52.526;13.326;2022-10-24T06:08:30;13.60;99.90
15749;DHT22;7976;52.526;13.326;2022-10-24T06:10:59;13.60;99.90
15749;DHT22;7976;52.526;13.326;2022-10-24T06:13:27;13.60;99.90
15749;DHT22;7976;52.526;13.326;2022-10-24T06:15:54;13.60;99.90
15749;DHT22;7976;52.526;13.326;2022-10-24T06:18:22;13.60;99.90
15749;DHT22;7976;52.526;13.326;2022-10-24T06:20:49;13.60;99.90
15749;DHT22;7976;52.526;13.326;2022-10-24T06:23:20;13.70;99.90
15749;DHT22;7976;52.526;13.326;2022-10-24T06:25:48;13.70;99.90
15749;DHT22;7976;52.526;13.326;2022-10-24T06:28:14;13.70;99.90
15749;DHT22;7976;52.526;13.326;2022-10-24T06:30:43;13.70;99.90
15749;DHT22;7976;52.526;13.326;2022-10-24T06:33:12;13.70;99.90
15749;DHT22;7976;52.526;13.326;2022-10-24T06:35:40;13.80;99.90
15749;DHT22;7976;52.526;13.326;2022-10-24T06:38:07;13.80;99.90
15749;DHT22;7976;52.526;13.326;2022-10-24T06:40:36;13.80;99.90
15749;DHT22;7976;52.526;13.326;2022-10-24T06:43:06;13.80;99.90
15749;DHT22;7976;52.526;13.326;2022-10-24T06:45:33;13.80;99.90
15749;DHT22;7976;52.526;13.326;2022-10-24T06:48:01;13.80;99.90
15749;DHT22;7976;52.526;13.326;2022-10-24T06:50:28;13.90;99.90
15749;DHT22;7976;52.526;13.326;2022-10-24T06:52:55;13.90;99.90
15749;DHT22;7976;52.526;13.326;2022-10-24T06:55:22;13.90;99.90
15749;DHT22;7976;52.526;13.326;2022-10-24T06:57:48;13.90;99.90
15749;DHT22;7976;52.526;13.326;2022-10-24T07:00:16;13.90;99.90
15749;DHT22;7976;52.526;13.326;2022-10-24T07:02:43;14.00;99.90
15749;DHT22;7976;52.526;13.326;2022-10-24T07:05:12;14.00;99.90
15749;DHT22;7976;52.526;13.326;2022-10-24T07:07:40;14.00;99.90
15749;DHT22;7976;52.526;13.326;2022-10-24T07:10:09;14.00;99.90
15749;DHT22;7976;52.526;13.326;2022-10-24T07:12:38;14.00;99.90
15749;DHT22;7976;52.526;13.326;2022-10-24T07:15:06;14.10;99.90
15749;DHT22;7976;52.526;13.326;2022-10-24T07:17:37;14.10;99.90
15749;DHT22;7976;52.526;13.326;2022-10-24T07:20:06;14.10;99.90
15749;DHT22;7976;52.526;13.326;2022-10-24T07:22:35;14.20;99.90
15749;DHT22;7976;52.526;13.326;2022-10-24T07:25:04;14.20;99.90
15749;DHT22;7976;52.526;13.326;2022-10-24T07:27:33;14.20;99.90
15749;DHT22;7976;52.526;13.326;2022-10-24T07:30:00;14.20;99.90
15749;DHT22;7976;52.526;13.326;2022-10-24T07:32:27;14.30;99.90
15749;DHT22;7976;52.526;13.326;2022-10-24T07:34:54;14.30;99.90
15749;DHT22;7976;52.526;13.326;2022-10-24T07:37:21;14.40;99.90
15749;DHT22;7976;52.526;13.326;2022-10-24T07:39:50;14.50;99.90
15749;DHT22;7976;52.526;13.326;2022-10-24T07:42:17;14.50;99.90
15749;DHT22;7976;52.526;13.326;2022-10-24T07:44:45;14.60;99.90
15749;DHT22;7976;52.526;13.326;2022-10-24T07:47:13;14.60;99.90
15749;DHT22;7976;52.526;13.326;2022-10-24T07:49:40;14.70;99.90
15749;DHT22;7976;52.526;13.326;2022-10-24T07:52:08;14.70;99.90
15749;DHT22;7976;52.526;13.326;2022-10-24T07:54:35;14.80;99.90
15749;DHT22;7976;52.526;13.326;2022-10-24T07:57:03;14.80;99.90
15749;DHT22;7976;52.526;13.326;2022-10-24T07:59:31;14.90;99.90
15749;DHT22;7976;52.526;13.326;2022-10-24T08:01:59;14.90;99.90
15749;DHT22;7976;52.526;13.326;2022-10-24T08:04:26;14.90;99.90
15749;DHT22;7976;52.526;13.326;2022-10-24T08:06:55;15.00;99.90
15749;DHT22;7976;52.526;13.326;2022-10-24T08:09:23;15.10;99.90
15749;DHT22;7976;52.526;13.326;2022-10-24T08:11:51;15.10;99.90
15749;DHT22;7976;52.526;13.326;2022-10-24T08:14:19;15.20;99.90
15749;DHT22;7976;52.526;13.326;2022-10-24T08:16:46;15.30;99.90
15749;DHT22;7976;52.526;13.326;2022-10-24T08:19:13;15.30;99.90
15749;DHT22;7976;52.526;13.326;2022-10-24T08:21:40;15.30;99.90
15749;DHT22;7976;52.526;13.326;2022-10-24T08:24:07;15.40;99.90
15749;DHT22;7976;52.526;13.326;2022-10-24T08:26:34;15.40;99.90
15749;DHT22;7976;52.526;13.326;2022-10-24T08:29:05;15.50;99.90
15749;DHT22;7976;52.526;13.326;2022-10-24T08:31:37;15.50;99.90
15749;DHT22;7976;52.526;13.326;2022-10-24T08:34:03;15.60;99.90
15749;DHT22;7976;52.526;13.326;2022-10-24T08:36:32;15.60;99.90
15749;DHT22;7976;52.526;13.326;2022-10-24T08:39:02;15.70;99.90
15749;DHT22;7976;52.526;13.326;2022-10-24T08:41:31;15.70;99.90
15749;DHT22;7976;52.526;13.326;2022-10-24T08:44:04;15.80;99.90
15749;DHT22;7976;52.526;13.326;2022-10-24T08:46:45;15.90;99.90
15749;DHT22;7976;52.526;13.326;2022-10-24T08:49:22;15.90;99.90
15749;DHT22;7976;52.526;13.326;2022-10-24T08:51:56;16.00;99.90
15749;DHT22;7976;52.526;13.326;2022-10-24T08:54:29;16.00;99.90
15749;DHT22;7976;52.526;13.326;2022-10-24T08:57:02;16.10;99.90
15749;DHT22;7976;52.526;13.326;2022-10-24T08:59:32;16.10;99.90
15749;DHT22;7976;52.526;13.326;2022-10-24T09:02:05;16.10;99.90
15749;DHT22;7976;52.526;13.326;2022-10-24T09:04:44;16.20;99.90
15749;DHT22;7976;52.526;13.326;2022-10-24T09:07:18;16.20;99.90
15749;DHT22;7976;52.526;13.326;2022-10-24T09:09:49;16.20;99.90
15749;DHT22;7976;52.526;13.326;2022-10-24T09:12:21;16.30;99.90
15749;DHT22;7976;52.526;13.326;2022-10-24T09:14:55;16.30;99.90
15749;DHT22;7976;52.526;13.326;2022-10-24T09:17:29;16.30;99.90
15749;DHT22;7976;52.526;13.326;2022-10-24T09:20:05;16.30;99.90
15749;DHT22;7976;52.526;13.326;2022-10-24T09:22:44;16.40;99.90
15749;DHT22;7976;52.526;13.326;2022-10-24T09:25:14;16.40;99.90
15749;DHT22;7976;52.526;13.326;2022-10-24T09:27:43;16.40;99.90
15749;DHT22;7976;52.526;13.326;2022-10-24T09:30:15;16.50;99.90
15749;DHT22;7976;52.526;13.326;2022-10-24T09:32:45;16.50;99.90
15749;DHT22;7976;52.526;13.326;2022-10-24T09:35:17;16.50;99.90
15749;DHT22;7976;52.526;13.326;2022-10-24T09:37:48;16.50;99.90
15749;DHT22;7976;52.526;13.326;2022-10-24T09:40:19;16.50;99.90
15749;DHT22;7976;52.526;13.326;2022-10-24T09:42:51;16.60;99.90
15749;DHT22;7976;52.526;13.326;2022-10-24T09:45:30;16.60;99.90
15749;DHT22;7976;52.526;13.326;2022-10-24T09:48:06;16.70;99.90
15749;DHT22;7976;52.526;13.326;2022-10-24T09:50:43;16.70;99.90
15749;DHT22;7976;52.526;13.326;2022-10-24T09:53:24;16.80;99.90
15749;DHT22;7976;52.526;13.326;2022-10-24T09:55:56;16.80;99.90
15749;DHT22;7976;52.526;13.326;2022-10-24T09:58:27;16.90;99.90
15749;DHT22;7976;52.526;13.326;2022-10-24T10:01:01;16.90;99.90
15749;DHT22;7976;52.526;13.326;2022-10-24T10:03:31;16.90;99.90
15749;DHT22;7976;52.526;13.326;2022-10-24T10:06:02;17.00;99.90
15749;DHT22;7976;52.526;13.326;2022-10-24T10:08:39;17.00;99.90
15749;DHT22;7976;52.526;13.326;2022-10-24T10:11:09;17.10;99.90
15749;DHT22;7976;52.526;13.326;2022-10-24T10:13:43;17.10;99.90
15749;DHT22;7976;52.526;13.326;2022-10-24T10:16:21;17.20;99.90
15749;DHT22;7976;52.526;13.326;2022-10-24T10:19:00;17.20;99.90
15749;DHT22;7976;52.526;13.326;2022-10-24T10:21:52;17.30;99.90
15749;DHT22;7976;52.526;13.326;2022-10-24T10:24:25;17.30;99.90
15749;DHT22;7976;52.526;13.326;2022-10-24T10:27:26;17.40;99.90
15749;DHT22;7976;52.526;13.326;2022-10-24T10:30:20;17.40;99.90
15749;DHT22;7976;52.526;13.326;2022-10-24T10:33:13;17.40;99.90
15749;DHT22;7976;52.526;13.326;2022-10-24T10:35:49;17.50;99.90
15749;DHT22;7976;52.526;13.326;2022-10-24T10:38:41;17.50;99.90
15749;DHT22;7976;52.526;13.326;2022-10-24T10:41:21;17.50;99.90
15749;DHT22;7976;52.526;13.326;2022-10-24T10:44:09;17.50;99.90
15749;DHT22;7976;52.526;13.326;2022-10-24T10:47:01;17.60;99.90
15749;DHT22;7976;52.526;13.326;2022-10-24T10:49:38;17.60;99.90
15749;DHT22;7976;52.526;13.326;2022-10-24T10:52:12;17.60;99.90
15749;DHT22;7976;52.526;13.326;2022-10-24T10:55:07;17.60;99.90
15749;DHT22;7976;52.526;13.326;2022-10-24T10:57:48;17.60;99.90
15749;DHT22;7976;52.526;13.326;2022-10-24T11:00:24;17.60;99.90
15749;DHT22;7976;52.526;13.326;2022-10-24T11:03:14;17.60;99.90
15749;DHT22;7976;52.526;13.326;2022-10-24T11:05:56;17.60;99.90
15749;DHT22;7976;52.526;13.326;2022-10-24T11:08:45;17.60;99.90
15749;DHT22;7976;52.526;13.326;2022-10-24T11:11:30;17.60;99.90
15749;DHT22;7976;52.526;13.326;2022-10-24T11:14:15;17.60;99.90
15749;DHT22;7976;52.526;13.326;2022-10-24T11:16:53;17.70;99.90
15749;DHT22;7976;52.526;13.326;2022-10-24T11:19:27;17.70;99.90
15749;DHT22;7976;52.526;13.326;2022-10-24T11:22:02;17.70;99.90
15749;DHT22;7976;52.526;13.326;2022-10-24T11:24:38;17.70;99.90
15749;DHT22;7976;52.526;13.326;2022-10-24T11:27:12;17.80;99.90
15749;DHT22;7976;52.526;13.326;2022-10-24T11:29:49;17.80;99.90
15749;DHT22;7976;52.526;13.326;2022-10-24T11:32:25;17.80;99.90
15749;DHT22;7976;52.526;13.326;2022-10-24T11:35:00;17.80;99.90
15749;DHT22;7976;52.526;13.326;2022-10-24T11:37:42;17.90;99.90
15749;DHT22;7976;52.526;13.326;2022-10-24T11:40:20;17.90;99.90
15749;DHT22;7976;52.526;13.326;2022-10-24T11:42:51;17.90;99.90
15749;DHT22;7976;52.526;13.326;2022-10-24T11:45:25;17.90;99.90
15749;DHT22;7976;52.526;13.326;2022-10-24T11:48:04;18.00;99.90
15749;DHT22;7976;52.526;13.326;2022-10-24T11:50:45;17.90;99.90
15749;DHT22;7976;52.526;13.326;2022-10-24T11:53:44;18.00;99.90
15749;DHT22;7976;52.526;13.326;2022-10-24T11:56:23;17.90;99.90
15749;DHT22;7976;52.526;13.326;2022-10-24T11:58:57;18.00;99.90
15749;DHT22;7976;52.526;13.326;2022-10-24T12:01:45;18.00;99.90
15749;DHT22;7976;52.526;13.326;2022-10-24T12:04:42;18.00;99.90
15749;DHT22;7976;52.526;13.326;2022-10-24T12:10:48;18.00;99.90
15749;DHT22;7976;52.526;13.326;2022-10-24T12:13:43;18.00;99.90
15749;DHT22;7976;52.526;13.326;2022-10-24T12:16:29;18.10;99.90
15749;DHT22;7976;52.526;13.326;2022-10-24T12:19:09;18.10;99.90
15749;DHT22;7976;52.526;13.326;2022-10-24T12:21:42;18.20;99.90
15749;DHT22;7976;52.526;13.326;2022-10-24T12:24:20;18.20;99.90
15749;DHT22;7976;52.526;13.326;2022-10-24T12:26:54;18.20;99.90
15749;DHT22;7976;52.526;13.326;2022-10-24T12:29:26;18.30;99.90
15749;DHT22;7976;52.526;13.326;2022-10-24T12:31:53;18.30;99.90
15749;DHT22;7976;52.526;13.326;2022-10-24T12:34:46;18.30;99.90
15749;DHT22;7976;52.526;13.326;2022-10-24T12:37:33;18.30;99.90
15749;DHT22;7976;52.526;13.326;2022-10-24T12:43:33;18.30;99.90
15749;DHT22;7976;52.526;13.326;2022-10-24T12:46:51;18.30;99.90
15749;DHT22;7976;52.526;13.326;2022-10-24T12:49:25;18.30;99.90
15749;DHT22;7976;52.526;13.326;2022-10-24T12:51:55;18.30;99.90
15749;DHT22;7976;52.526;13.326;2022-10-24T12:54:40;18.30;99.90
15749;DHT22;7976;52.526;13.326;2022-10-24T12:57:25;18.30;99.90
15749;DHT22;7976;52.526;13.326;2022-10-24T12:59:58;18.30;99.90
15749;DHT22;7976;52.526;13.326;2022-10-24T13:03:04;18.40;99.90
15749;DHT22;7976;52.526;13.326;2022-10-24T13:05:55;18.50;99.90
15749;DHT22;7976;52.526;13.326;2022-10-24T13:08:46;18.50;99.90
15749;DHT22;7976;52.526;13.326;2022-10-24T13:11:42;18.50;99.90
15749;DHT22;7976;52.526;13.326;2022-10-24T13:14:38;18.50;99.90
15749;DHT22;7976;52.526;13.326;2022-10-24T13:17:25;18.50;99.90
15749;DHT22;7976;52.526;13.326;2022-10-24T13:20:16;18.40;99.90
15749;DHT22;7976;52.526;13.326;2022-10-24T13:22:47;18.40;99.90
15749;DHT22;7976;52.526;13.326;2022-10-24T13:25:26;18.40;99.90
15749;DHT22;7976;52.526;13.326;2022-10-24T13:28:36;18.30;99.90
15749;DHT22;7976;52.526;13.326;2022-10-24T13:31:41;18.30;99.90
15749;DHT22;7976;52.526;13.326;2022-10-24T13:34:29;18.30;99.90
15749;DHT22;7976;52.526;13.326;2022-10-24T13:37:06;18.30;99.90
15749;DHT22;7976;52.526;13.326;2022-10-24T13:39:49;18.20;99.90
15749;DHT22;7976;52.526;13.326;2022-10-24T13:42:30;18.20;99.90
15749;DHT22;7976;52.526;13.326;2022-10-24T13:45:03;18.20;99.90
15749;DHT22;7976;52.526;13.326;2022-10-24T13:47:48;18.20;99.90
15749;DHT22;7976;52.526;13.326;2022-10-24T13:50:21;18.20;99.90
15749;DHT22;7976;52.526;13.326;2022-10-24T13:52:57;18.20;99.90
15749;DHT22;7976;52.526;13.326;2022-10-24T13:55:34;18.20;99.90
15749;DHT22;7976;52.526;13.326;2022-10-24T13:58:08;18.20;99.90
15749;DHT22;7976;52.526;13.326;2022-10-24T14:00:39;18.10;99.90
15749;DHT22;7976;52.526;13.326;2022-10-24T14:03:13;18.10;99.90
15749;DHT22;7976;52.526;13.326;2022-10-24T14:05:46;18.10;99.90
15749;DHT22;7976;52.526;13.326;2022-10-24T14:08:21;18.10;99.90
15749;DHT22;7976;52.526;13.326;2022-10-24T14:10:52;18.10;99.90
15749;DHT22;7976;52.526;13.326;2022-10-24T14:13:24;18.10;99.90
15749;DHT22;7976;52.526;13.326;2022-10-24T14:15:55;18.10;99.90
15749;DHT22;7976;52.526;13.326;2022-10-24T14:18:26;18.10;99.90
15749;DHT22;7976;52.526;13.326;2022-10-24T14:20:55;18.10;99.90
15749;DHT22;7976;52.526;13.326;2022-10-24T14:23:28;18.10;99.90
15749;DHT22;7976;52.526;13.326;2022-10-24T14:26:00;18.10;99.90
15749;DHT22;7976;52.526;13.326;2022-10-24T14:28:32;18.10;99.90
15749;DHT22;7976;52.526;13.326;2022-10-24T14:31:02;18.10;99.90
15749;DHT22;7976;52.526;13.326;2022-10-24T14:33:34;18.10;99.90
15749;DHT22;7976;52.526;13.326;2022-10-24T14:36:09;18.10;99.90
15749;DHT22;7976;52.526;13.326;2022-10-24T14:38:38;18.10;99.90
15749;DHT22;7976;52.526;13.326;2022-10-24T14:41:06;18.10;99.90
15749;DHT22;7976;52.526;13.326;2022-10-24T14:43:36;18.10;99.90
15749;DHT22;7976;52.526;13.326;2022-10-24T14:46:16;18.10;99.90
15749;DHT22;7976;52.526;13.326;2022-10-24T14:48:52;18.10;99.90
15749;DHT22;7976;52.526;13.326;2022-10-24T14:51:25;18.10;99.90
15749;DHT22;7976;52.526;13.326;2022-10-24T14:53:56;18.10;99.90
15749;DHT22;7976;52.526;13.326;2022-10-24T14:56:27;18.00;99.90
15749;DHT22;7976;52.526;13.326;2022-10-24T14:58:57;18.00;99.90
15749;DHT22;7976;52.526;13.326;2022-10-24T15:01:27;18.00;99.90
15749;DHT22;7976;52.526;13.326;2022-10-24T15:03:56;18.00;99.90
15749;DHT22;7976;52.526;13.326;2022-10-24T15:06:27;18.00;99.90
15749;DHT22;7976;52.526;13.326;2022-10-24T15:09:05;17.90;99.90
15749;DHT22;7976;52.526;13.326;2022-10-24T15:11:42;17.90;99.90
15749;DHT22;7976;52.526;13.326;2022-10-24T15:14:32;17.90;99.90
15749;DHT22;7976;52.526;13.326;2022-10-24T15:17:24;17.90;99.90
15749;DHT22;7976;52.526;13.326;2022-10-24T15:19:55;17.80;99.90
15749;DHT22;7976;52.526;13.326;2022-10-24T15:22:26;17.80;99.90
15749;DHT22;7976;52.526;13.326;2022-10-24T15:24:57;17.80;99.90
15749;DHT22;7976;52.526;13.326;2022-10-24T15:27:27;17.70;99.90
15749;DHT22;7976;52.526;13.326;2022-10-24T15:29:56;17.70;99.90
15749;DHT22;7976;52.526;13.326;2022-10-24T15:32:23;17.70;99.90
15749;DHT22;7976;52.526;13.326;2022-10-24T15:34:53;17.60;99.90
15749;DHT22;7976;52.526;13.326;2022-10-24T15:37:23;17.60;99.90
15749;DHT22;7976;52.526;13.326;2022-10-24T15:39:52;17.50;99.90
15749;DHT22;7976;52.526;13.326;2022-10-24T15:42:21;17.50;99.90
15749;DHT22;7976;52.526;13.326;2022-10-24T15:44:48;17.50;99.90
15749;DHT22;7976;52.526;13.326;2022-10-24T15:47:15;17.50;99.90
15749;DHT22;7976;52.526;13.326;2022-10-24T15:49:42;17.50;99.90
15749;DHT22;7976;52.526;13.326;2022-10-24T15:52:14;17.50;99.90
15749;DHT22;7976;52.526;13.326;2022-10-24T15:54:42;17.40;99.90
15749;DHT22;7976;52.526;13.326;2022-10-24T15:57:09;17.40;99.90
15749;DHT22;7976;52.526;13.326;2022-10-24T15:59:39;17.40;99.90
15749;DHT22;7976;52.526;13.326;2022-10-24T16:02:12;17.40;99.90
15749;DHT22;7976;52.526;13.326;2022-10-24T16:04:41;17.30;99.90
15749;DHT22;7976;52.526;13.326;2022-10-24T16:07:09;17.30;99.90
15749;DHT22;7976;52.526;13.326;2022-10-24T16:09:36;17.30;99.90
15749;DHT22;7976;52.526;13.326;2022-10-24T16:12:03;17.30;99.90
15749;DHT22;7976;52.526;13.326;2022-10-24T16:14:30;17.30;99.90
15749;DHT22;7976;52.526;13.326;2022-10-24T16:16:59;17.30;99.90
15749;DHT22;7976;52.526;13.326;2022-10-24T16:19:26;17.20;99.90